sensor_id;sensor_type;location;lat;lon;timestamp;P1;durP1;ratioP1;P2;durP2;ratioP2
55114;SDS011;41010;53.252;5.786;2022-10-31T00:01:16;20.40;;;9.82;;
55114;SDS011;41010;53.252;5.786;2022-10-31T00:03:43;19.77;;;9.45;;
55114;SDS011;41010;53.252;5.786;2022-10-31T00:06:11;23.08;;;9.45;;
55114;SDS011;41010;53.252;5.786;2022-10-31T00:08:38;18.50;;;9.68;;
55114;SDS011;41010;53.252;5.786;2022-10-31T00:11:08;20.23;;;10.13;;
55114;SDS011;41010;53.252;5.786;2022-10-31T00:13:35;22.20;;;10.35;;
55114;SDS011;41010;53.252;5.786;2022-10-31T00:16:04;20.55;;;10.00;;
55114;SDS011;41010;53.252;5.786;2022-10-31T00:18:31;24.90;;;10.55;;
55114;SDS011;41010;53.252;5.786;2022-10-31T00:20:59;21.55;;;10.25;;
55114;SDS011;41010;53.252;5.786;2022-10-31T00:23:26;21.85;;;10.80;;
55114;SDS011;41010;53.252;5.786;2022-10-31T00:25:54;21.15;;;9.95;;
55114;SDS011;41010;53.252;5.786;2022-10-31T00:28:21;24.15;;;11.10;;
55114;SDS011;41010;53.252;5.786;2022-10-31T00:30:48;20.52;;;10.88;;
55114;SDS011;41010;53.252;5.786;2022-10-31T00:33:17;30.02;;;11.90;;
55114;SDS011;41010;53.252;5.786;2022-10-31T00:35:48;24.38;;;10.02;;
55114;SDS011;41010;53.252;5.786;2022-10-31T00:38:16;25.77;;;11.77;;
55114;SDS011;41010;53.252;5.786;2022-10-31T00:40:43;23.20;;;10.73;;
55114;SDS011;41010;53.252;5.786;2022-10-31T00:43:10;23.17;;;10.38;;
55114;SDS011;41010;53.252;5.786;2022-10-31T00:45:37;21.63;;;11.25;;
55114;SDS011;41010;53.252;5.786;2022-10-31T00:48:05;23.88;;;11.07;;
55114;SDS011;41010;53.252;5.786;2022-10-31T00:50:33;26.40;;;11.23;;
55114;SDS011;41010;53.252;5.786;2022-10-31T00:53:00;25.67;;;10.25;;
55114;SDS011;41010;53.252;5.786;2022-10-31T00:55:28;29.50;;;11.30;;
55114;SDS011;41010;53.252;5.786;2022-10-31T00:57:55;33.53;;;11.02;;
55114;SDS011;41010;53.252;5.786;2022-10-31T01:00:22;23.90;;;10.45;;
55114;SDS011;41010;53.252;5.786;2022-10-31T01:02:49;20.40;;;11.00;;
55114;SDS011;41010;53.252;5.786;2022-10-31T01:05:17;26.20;;;10.73;;
55114;SDS011;41010;53.252;5.786;2022-10-31T01:07:45;20.90;;;9.52;;
55114;SDS011;41010;53.252;5.786;2022-10-31T01:10:13;27.02;;;11.15;;
55114;SDS011;41010;53.252;5.786;2022-10-31T01:12:41;25.08;;;9.52;;
55114;SDS011;41010;53.252;5.786;2022-10-31T01:15:09;26.02;;;9.93;;
55114;SDS011;41010;53.252;5.786;2022-10-31T01:17:36;21.92;;;10.07;;
55114;SDS011;41010;53.252;5.786;2022-10-31T01:20:03;25.88;;;10.27;;
55114;SDS011;41010;53.252;5.786;2022-10-31T01:22:31;17.00;;;8.88;;
55114;SDS011;41010;53.252;5.786;2022-10-31T01:25:00;21.15;;;9.43;;
55114;SDS011;41010;53.252;5.786;2022-10-31T01:27:27;20.33;;;9.35;;
55114;SDS011;41010;53.252;5.786;2022-10-31T01:29:54;20.33;;;8.50;;
55114;SDS011;41010;53.252;5.786;2022-10-31T01:32:21;26.30;;;9.10;;
55114;SDS011;41010;53.252;5.786;2022-10-31T01:34:49;23.17;;;9.73;;
55114;SDS011;41010;53.252;5.786;2022-10-31T01:37:16;27.65;;;9.70;;
55114;SDS011;41010;53.252;5.786;2022-10-31T01:39:43;18.95;;;10.00;;
55114;SDS011;41010;53.252;5.786;2022-10-31T01:42:12;25.48;;;10.43;;
55114;SDS011;41010;53.252;5.786;2022-10-31T01:44:53;21.67;;;10.65;;
55114;SDS011;41010;53.252;5.786;2022-10-31T01:47:21;19.27;;;11.88;;
55114;SDS011;41010;53.252;5.786;2022-10-31T01:49:52;20.77;;;11.23;;
55114;SDS011;41010;53.252;5.786;2022-10-31T01:52:21;24.77;;;12.48;;
55114;SDS011;41010;53.252;5.786;2022-10-31T01:54:50;20.85;;;11.88;;
55114;SDS011;41010;53.252;5.786;2022-10-31T01:57:20;23.65;;;11.88;;
55114;SDS011;41010;53.252;5.786;2022-10-31T01:59:49;24.92;;;12.98;;
55114;SDS011;41010;53.252;5.786;2022-10-31T02:02:17;26.38;;;13.95;;
55114;SDS011;41010;53.252;5.786;2022-10-31T02:04:45;27.90;;;13.95;;
55114;SDS011;41010;53.252;5.786;2022-10-31T02:07:13;24.30;;;13.98;;
55114;SDS011;41010;53.252;5.786;2022-10-31T02:09:41;28.73;;;14.55;;
55114;SDS011;41010;53.252;5.786;2022-10-31T02:12:09;27.80;;;14.05;;
55114;SDS011;41010;53.252;5.786;2022-10-31T02:14:38;30.42;;;15.95;;
55114;SDS011;41010;53.252;5.786;2022-10-31T02:17:05;30.83;;;14.75;;
55114;SDS011;41010;53.252;5.786;2022-10-31T02:19:34;31.38;;;15.77;;
55114;SDS011;41010;53.252;5.786;2022-10-31T02:22:07;33.97;;;13.87;;
55114;SDS011;41010;53.252;5.786;2022-10-31T02:24:44;32.35;;;14.70;;
55114;SDS011;41010;53.252;5.786;2022-10-31T02:27:24;28.15;;;15.52;;
55114;SDS011;41010;53.252;5.786;2022-10-31T02:30:02;30.05;;;16.08;;
55114;SDS011;41010;53.252;5.786;2022-10-31T02:32:34;37.17;;;16.40;;
55114;SDS011;41010;53.252;5.786;2022-10-31T02:35:06;27.92;;;15.95;;
55114;SDS011;41010;53.252;5.786;2022-10-31T02:37:37;32.75;;;16.27;;
55114;SDS011;41010;53.252;5.786;2022-10-31T02:40:09;30.67;;;15.48;;
55114;SDS011;41010;53.252;5.786;2022-10-31T02:42:39;31.25;;;16.05;;
55114;SDS011;41010;53.252;5.786;2022-10-31T02:45:11;29.87;;;16.50;;
55114;SDS011;41010;53.252;5.786;2022-10-31T02:47:40;30.80;;;15.65;;
55114;SDS011;41010;53.252;5.786;2022-10-31T02:50:10;26.98;;;15.57;;
55114;SDS011;41010;53.252;5.786;2022-10-31T02:52:38;24.88;;;14.95;;
55114;SDS011;41010;53.252;5.786;2022-10-31T02:55:09;30.15;;;16.75;;
55114;SDS011;41010;53.252;5.786;2022-10-31T02:57:37;24.80;;;14.77;;
55114;SDS011;41010;53.252;5.786;2022-10-31T03:00:07;28.48;;;15.68;;
55114;SDS011;41010;53.252;5.786;2022-10-31T03:05:36;26.55;;;16.42;;
55114;SDS011;41010;53.252;5.786;2022-10-31T03:08:10;26.73;;;15.18;;
55114;SDS011;41010;53.252;5.786;2022-10-31T03:10:40;28.20;;;14.55;;
55114;SDS011;41010;53.252;5.786;2022-10-31T03:13:10;29.40;;;15.70;;
55114;SDS011;41010;53.252;5.786;2022-10-31T03:15:39;27.55;;;15.45;;
55114;SDS011;41010;53.252;5.786;2022-10-31T03:18:07;28.55;;;14.73;;
55114;SDS011;41010;53.252;5.786;2022-10-31T03:20:37;26.92;;;14.85;;
55114;SDS011;41010;53.252;5.786;2022-10-31T03:23:06;30.55;;;16.30;;
55114;SDS011;41010;53.252;5.786;2022-10-31T03:25:35;29.45;;;14.52;;
55114;SDS011;41010;53.252;5.786;2022-10-31T03:28:03;24.13;;;14.43;;
55114;SDS011;41010;53.252;5.786;2022-10-31T03:30:31;25.48;;;15.15;;
55114;SDS011;41010;53.252;5.786;2022-10-31T03:33:00;28.45;;;15.88;;
55114;SDS011;41010;53.252;5.786;2022-10-31T03:35:29;25.98;;;15.00;;
55114;SDS011;41010;53.252;5.786;2022-10-31T03:37:58;24.90;;;15.10;;
55114;SDS011;41010;53.252;5.786;2022-10-31T03:40:27;26.85;;;14.75;;
55114;SDS011;41010;53.252;5.786;2022-10-31T03:42:55;25.25;;;14.82;;
55114;SDS011;41010;53.252;5.786;2022-10-31T03:45:25;23.67;;;15.02;;
55114;SDS011;41010;53.252;5.786;2022-10-31T03:47:53;25.38;;;14.00;;
55114;SDS011;41010;53.252;5.786;2022-10-31T03:50:21;26.52;;;15.73;;
55114;SDS011;41010;53.252;5.786;2022-10-31T03:52:52;29.58;;;15.55;;
55114;SDS011;41010;53.252;5.786;2022-10-31T03:55:24;27.25;;;15.57;;
55114;SDS011;41010;53.252;5.786;2022-10-31T03:57:54;27.95;;;15.52;;
55114;SDS011;41010;53.252;5.786;2022-10-31T04:00:24;32.35;;;16.90;;
55114;SDS011;41010;53.252;5.786;2022-10-31T04:02:53;29.02;;;16.58;;
55114;SDS011;41010;53.252;5.786;2022-10-31T04:05:21;32.97;;;16.20;;
55114;SDS011;41010;53.252;5.786;2022-10-31T04:07:49;29.48;;;15.57;;
55114;SDS011;41010;53.252;5.786;2022-10-31T04:10:18;28.58;;;15.07;;
55114;SDS011;41010;53.252;5.786;2022-10-31T04:12:48;26.00;;;15.98;;
55114;SDS011;41010;53.252;5.786;2022-10-31T04:15:16;30.73;;;16.48;;
55114;SDS011;41010;53.252;5.786;2022-10-31T04:17:44;26.80;;;16.33;;
55114;SDS011;41010;53.252;5.786;2022-10-31T04:20:15;32.13;;;18.08;;
55114;SDS011;41010;53.252;5.786;2022-10-31T04:22:42;32.08;;;17.35;;
55114;SDS011;41010;53.252;5.786;2022-10-31T04:25:09;28.08;;;17.27;;
55114;SDS011;41010;53.252;5.786;2022-10-31T04:27:36;24.77;;;15.00;;
55114;SDS011;41010;53.252;5.786;2022-10-31T04:30:06;31.25;;;16.27;;
55114;SDS011;41010;53.252;5.786;2022-10-31T04:32:33;34.13;;;16.55;;
55114;SDS011;41010;53.252;5.786;2022-10-31T04:35:00;29.88;;;16.55;;
55114;SDS011;41010;53.252;5.786;2022-10-31T04:37:27;31.83;;;17.48;;
55114;SDS011;41010;53.252;5.786;2022-10-31T04:39:55;29.10;;;17.60;;
55114;SDS011;41010;53.252;5.786;2022-10-31T04:42:22;28.42;;;17.15;;
55114;SDS011;41010;53.252;5.786;2022-10-31T04:44:49;32.92;;;17.33;;
55114;SDS011;41010;53.252;5.786;2022-10-31T04:47:18;31.77;;;17.52;;
55114;SDS011;41010;53.252;5.786;2022-10-31T04:49:45;29.02;;;17.40;;
55114;SDS011;41010;53.252;5.786;2022-10-31T04:52:12;29.27;;;17.80;;
55114;SDS011;41010;53.252;5.786;2022-10-31T04:54:39;29.77;;;17.42;;
55114;SDS011;41010;53.252;5.786;2022-10-31T04:57:06;28.48;;;17.75;;
55114;SDS011;41010;53.252;5.786;2022-10-31T04:59:34;34.20;;;18.60;;
55114;SDS011;41010;53.252;5.786;2022-10-31T05:02:01;34.08;;;17.65;;
55114;SDS011;41010;53.252;5.786;2022-10-31T05:04:29;37.15;;;20.13;;
55114;SDS011;41010;53.252;5.786;2022-10-31T05:06:57;38.30;;;19.60;;
55114;SDS011;41010;53.252;5.786;2022-10-31T05:09:24;36.17;;;19.70;;
55114;SDS011;41010;53.252;5.786;2022-10-31T05:11:51;37.08;;;20.52;;
55114;SDS011;41010;53.252;5.786;2022-10-31T05:14:18;35.65;;;19.48;;
55114;SDS011;41010;53.252;5.786;2022-10-31T05:16:45;32.78;;;18.83;;
55114;SDS011;41010;53.252;5.786;2022-10-31T05:19:13;32.63;;;18.33;;
55114;SDS011;41010;53.252;5.786;2022-10-31T05:21:41;30.67;;;18.30;;
55114;SDS011;41010;53.252;5.786;2022-10-31T05:24:08;31.52;;;18.73;;
55114;SDS011;41010;53.252;5.786;2022-10-31T05:26:36;28.52;;;17.95;;
55114;SDS011;41010;53.252;5.786;2022-10-31T05:29:03;37.67;;;19.65;;
55114;SDS011;41010;53.252;5.786;2022-10-31T05:31:30;39.05;;;21.17;;
55114;SDS011;41010;53.252;5.786;2022-10-31T05:33:57;34.90;;;18.92;;
55114;SDS011;41010;53.252;5.786;2022-10-31T05:36:25;39.97;;;20.92;;
55114;SDS011;41010;53.252;5.786;2022-10-31T05:38:53;29.38;;;18.08;;
55114;SDS011;41010;53.252;5.786;2022-10-31T05:41:20;32.65;;;18.60;;
55114;SDS011;41010;53.252;5.786;2022-10-31T05:43:48;31.27;;;18.63;;
55114;SDS011;41010;53.252;5.786;2022-10-31T05:46:15;34.88;;;19.15;;
55114;SDS011;41010;53.252;5.786;2022-10-31T05:48:42;35.80;;;19.52;;
55114;SDS011;41010;53.252;5.786;2022-10-31T05:51:09;29.98;;;17.73;;
55114;SDS011;41010;53.252;5.786;2022-10-31T05:53:36;24.33;;;17.02;;
55114;SDS011;41010;53.252;5.786;2022-10-31T05:56:05;34.00;;;18.65;;
55114;SDS011;41010;53.252;5.786;2022-10-31T05:58:32;45.85;;;22.15;;
55114;SDS011;41010;53.252;5.786;2022-10-31T06:01:00;34.78;;;20.02;;
55114;SDS011;41010;53.252;5.786;2022-10-31T06:03:27;36.88;;;20.52;;
55114;SDS011;41010;53.252;5.786;2022-10-31T06:05:54;31.20;;;18.70;;
55114;SDS011;41010;53.252;5.786;2022-10-31T06:08:21;36.83;;;21.17;;
55114;SDS011;41010;53.252;5.786;2022-10-31T06:10:49;36.20;;;19.02;;
55114;SDS011;41010;53.252;5.786;2022-10-31T06:13:19;42.08;;;22.92;;
55114;SDS011;41010;53.252;5.786;2022-10-31T06:15:46;40.88;;;20.35;;
55114;SDS011;41010;53.252;5.786;2022-10-31T06:18:13;37.08;;;22.45;;
55114;SDS011;41010;53.252;5.786;2022-10-31T06:20:41;34.72;;;20.73;;
55114;SDS011;41010;53.252;5.786;2022-10-31T06:23:08;34.30;;;19.92;;
55114;SDS011;41010;53.252;5.786;2022-10-31T06:25:35;30.63;;;19.88;;
55114;SDS011;41010;53.252;5.786;2022-10-31T06:28:03;39.03;;;20.15;;
55114;SDS011;41010;53.252;5.786;2022-10-31T06:30:31;33.35;;;18.70;;
55114;SDS011;41010;53.252;5.786;2022-10-31T06:33:02;37.85;;;22.15;;
55114;SDS011;41010;53.252;5.786;2022-10-31T06:35:29;32.83;;;20.73;;
55114;SDS011;41010;53.252;5.786;2022-10-31T06:37:57;36.28;;;20.85;;
55114;SDS011;41010;53.252;5.786;2022-10-31T06:40:24;37.72;;;20.58;;
55114;SDS011;41010;53.252;5.786;2022-10-31T06:42:57;40.20;;;22.67;;
55114;SDS011;41010;53.252;5.786;2022-10-31T06:47:53;32.30;;;20.05;;
55114;SDS011;41010;53.252;5.786;2022-10-31T06:50:21;35.42;;;21.80;;
55114;SDS011;41010;53.252;5.786;2022-10-31T06:52:51;37.08;;;20.27;;
55114;SDS011;41010;53.252;5.786;2022-10-31T06:55:18;31.50;;;16.55;;
55114;SDS011;41010;53.252;5.786;2022-10-31T06:57:50;31.67;;;18.27;;
55114;SDS011;41010;53.252;5.786;2022-10-31T07:00:18;32.42;;;17.05;;
55114;SDS011;41010;53.252;5.786;2022-10-31T07:02:53;29.75;;;16.25;;
55114;SDS011;41010;53.252;5.786;2022-10-31T07:05:21;34.42;;;17.00;;
55114;SDS011;41010;53.252;5.786;2022-10-31T07:07:51;25.88;;;16.45;;
55114;SDS011;41010;53.252;5.786;2022-10-31T07:10:18;28.75;;;16.45;;
55114;SDS011;41010;53.252;5.786;2022-10-31T07:12:46;26.92;;;16.42;;
55114;SDS011;41010;53.252;5.786;2022-10-31T07:15:13;42.42;;;16.90;;
55114;SDS011;41010;53.252;5.786;2022-10-31T07:17:40;26.58;;;15.85;;
55114;SDS011;41010;53.252;5.786;2022-10-31T07:20:09;36.75;;;17.67;;
55114;SDS011;41010;53.252;5.786;2022-10-31T07:22:37;31.20;;;18.33;;
55114;SDS011;41010;53.252;5.786;2022-10-31T07:25:04;29.63;;;17.38;;
55114;SDS011;41010;53.252;5.786;2022-10-31T07:27:35;33.33;;;18.30;;
55114;SDS011;41010;53.252;5.786;2022-10-31T07:30:03;27.23;;;17.27;;
55114;SDS011;41010;53.252;5.786;2022-10-31T07:32:36;37.75;;;20.27;;
55114;SDS011;41010;53.252;5.786;2022-10-31T07:37:32;35.55;;;20.48;;
55114;SDS011;41010;53.252;5.786;2022-10-31T07:39:59;34.78;;;20.00;;
55114;SDS011;41010;53.252;5.786;2022-10-31T07:42:27;44.17;;;24.52;;
55114;SDS011;41010;53.252;5.786;2022-10-31T07:44:54;36.47;;;22.33;;
55114;SDS011;41010;53.252;5.786;2022-10-31T07:47:21;42.70;;;22.38;;
55114;SDS011;41010;53.252;5.786;2022-10-31T07:49:48;39.28;;;21.45;;
55114;SDS011;41010;53.252;5.786;2022-10-31T07:52:16;35.75;;;22.40;;
55114;SDS011;41010;53.252;5.786;2022-10-31T07:54:44;31.23;;;21.05;;
55114;SDS011;41010;53.252;5.786;2022-10-31T07:57:11;38.15;;;20.67;;
55114;SDS011;41010;53.252;5.786;2022-10-31T07:59:39;39.88;;;23.75;;
55114;SDS011;41010;53.252;5.786;2022-10-31T08:02:07;39.63;;;24.95;;
55114;SDS011;41010;53.252;5.786;2022-10-31T08:04:34;40.80;;;23.42;;
55114;SDS011;41010;53.252;5.786;2022-10-31T08:07:01;41.85;;;24.17;;
55114;SDS011;41010;53.252;5.786;2022-10-31T08:09:28;34.33;;;22.05;;
55114;SDS011;41010;53.252;5.786;2022-10-31T08:11:57;38.25;;;22.65;;
55114;SDS011;41010;53.252;5.786;2022-10-31T08:14:24;30.52;;;20.23;;
55114;SDS011;41010;53.252;5.786;2022-10-31T08:16:52;33.78;;;21.05;;
55114;SDS011;41010;53.252;5.786;2022-10-31T08:19:19;42.10;;;23.13;;
55114;SDS011;41010;53.252;5.786;2022-10-31T08:21:48;37.58;;;20.10;;
55114;SDS011;41010;53.252;5.786;2022-10-31T08:24:17;33.75;;;20.75;;
55114;SDS011;41010;53.252;5.786;2022-10-31T08:26:44;37.83;;;21.63;;
55114;SDS011;41010;53.252;5.786;2022-10-31T08:29:13;34.40;;;21.80;;
55114;SDS011;41010;53.252;5.786;2022-10-31T08:31:40;31.77;;;18.90;;
55114;SDS011;41010;53.252;5.786;2022-10-31T08:34:08;34.80;;;20.25;;
55114;SDS011;41010;53.252;5.786;2022-10-31T08:36:35;30.55;;;18.98;;
55114;SDS011;41010;53.252;5.786;2022-10-31T08:39:02;31.38;;;18.42;;
55114;SDS011;41010;53.252;5.786;2022-10-31T08:41:29;36.83;;;18.25;;
55114;SDS011;41010;53.252;5.786;2022-10-31T08:43:57;29.88;;;16.98;;
55114;SDS011;41010;53.252;5.786;2022-10-31T08:46:25;29.42;;;18.17;;
55114;SDS011;41010;53.252;5.786;2022-10-31T08:48:53;23.60;;;14.95;;
55114;SDS011;41010;53.252;5.786;2022-10-31T08:51:20;23.05;;;14.80;;
55114;SDS011;41010;53.252;5.786;2022-10-31T08:53:47;19.73;;;13.32;;
55114;SDS011;41010;53.252;5.786;2022-10-31T08:56:14;27.23;;;15.18;;
55114;SDS011;41010;53.252;5.786;2022-10-31T08:58:41;26.45;;;14.23;;
55114;SDS011;41010;53.252;5.786;2022-10-31T09:01:09;26.52;;;14.13;;
55114;SDS011;41010;53.252;5.786;2022-10-31T09:03:37;24.27;;;13.45;;
55114;SDS011;41010;53.252;5.786;2022-10-31T09:06:05;22.75;;;12.65;;
55114;SDS011;41010;53.252;5.786;2022-10-31T09:08:34;22.15;;;12.35;;
55114;SDS011;41010;53.252;5.786;2022-10-31T09:11:02;21.83;;;12.07;;
55114;SDS011;41010;53.252;5.786;2022-10-31T09:13:29;18.90;;;11.98;;
55114;SDS011;41010;53.252;5.786;2022-10-31T09:15:57;17.48;;;11.07;;
55114;SDS011;41010;53.252;5.786;2022-10-31T09:18:24;21.38;;;11.30;;
55114;SDS011;41010;53.252;5.786;2022-10-31T09:20:56;17.40;;;10.45;;
55114;SDS011;41010;53.252;5.786;2022-10-31T09:23:24;16.40;;;9.65;;
55114;SDS011;41010;53.252;5.786;2022-10-31T09:25:51;21.92;;;10.23;;
55114;SDS011;41010;53.252;5.786;2022-10-31T09:28:20;22.33;;;9.77;;
55114;SDS011;41010;53.252;5.786;2022-10-31T09:30:48;14.93;;;10.20;;
55114;SDS011;41010;53.252;5.786;2022-10-31T09:33:15;14.57;;;9.63;;
55114;SDS011;41010;53.252;5.786;2022-10-31T09:35:42;13.65;;;8.65;;
55114;SDS011;41010;53.252;5.786;2022-10-31T09:38:12;16.45;;;9.52;;
55114;SDS011;41010;53.252;5.786;2022-10-31T09:40:40;15.10;;;8.75;;
55114;SDS011;41010;53.252;5.786;2022-10-31T09:43:11;14.20;;;8.82;;
55114;SDS011;41010;53.252;5.786;2022-10-31T09:45:41;17.10;;;8.80;;
55114;SDS011;41010;53.252;5.786;2022-10-31T09:48:17;16.77;;;9.27;;
55114;SDS011;41010;53.252;5.786;2022-10-31T09:50:48;15.52;;;7.85;;
55114;SDS011;41010;53.252;5.786;2022-10-31T09:53:20;15.63;;;7.93;;
55114;SDS011;41010;53.252;5.786;2022-10-31T09:55:50;18.40;;;8.20;;
55114;SDS011;41010;53.252;5.786;2022-10-31T09:58:18;13.10;;;7.80;;
55114;SDS011;41010;53.252;5.786;2022-10-31T10:00:47;15.45;;;8.80;;
55114;SDS011;41010;53.252;5.786;2022-10-31T10:03:17;10.48;;;7.10;;
55114;SDS011;41010;53.252;5.786;2022-10-31T10:05:50;12.60;;;8.65;;
55114;SDS011;41010;53.252;5.786;2022-10-31T10:08:20;17.58;;;8.50;;
55114;SDS011;41010;53.252;5.786;2022-10-31T10:10:48;16.08;;;8.30;;
55114;SDS011;41010;53.252;5.786;2022-10-31T10:13:31;13.57;;;8.07;;
55114;SDS011;41010;53.252;5.786;2022-10-31T10:16:03;14.80;;;8.65;;
55114;SDS011;41010;53.252;5.786;2022-10-31T10:18:35;16.48;;;9.45;;
55114;SDS011;41010;53.252;5.786;2022-10-31T10:21:16;22.17;;;10.43;;
55114;SDS011;41010;53.252;5.786;2022-10-31T10:23:53;21.67;;;10.45;;
55114;SDS011;41010;53.252;5.786;2022-10-31T10:26:23;18.08;;;10.90;;
55114;SDS011;41010;53.252;5.786;2022-10-31T10:28:54;16.83;;;11.20;;
55114;SDS011;41010;53.252;5.786;2022-10-31T10:31:24;22.08;;;12.00;;
55114;SDS011;41010;53.252;5.786;2022-10-31T10:33:55;19.65;;;11.48;;
55114;SDS011;41010;53.252;5.786;2022-10-31T10:36:26;21.25;;;12.95;;
55114;SDS011;41010;53.252;5.786;2022-10-31T10:38:57;18.95;;;11.48;;
55114;SDS011;41010;53.252;5.786;2022-10-31T10:41:27;16.30;;;11.45;;
55114;SDS011;41010;53.252;5.786;2022-10-31T10:43:55;18.75;;;11.38;;
55114;SDS011;41010;53.252;5.786;2022-10-31T10:46:22;15.07;;;10.52;;
55114;SDS011;41010;53.252;5.786;2022-10-31T10:49:11;15.63;;;10.05;;
55114;SDS011;41010;53.252;5.786;2022-10-31T10:51:40;20.75;;;10.85;;
55114;SDS011;41010;53.252;5.786;2022-10-31T10:54:14;20.05;;;9.85;;
55114;SDS011;41010;53.252;5.786;2022-10-31T10:56:47;16.02;;;9.75;;
55114;SDS011;41010;53.252;5.786;2022-10-31T10:59:17;15.52;;;9.45;;
55114;SDS011;41010;53.252;5.786;2022-10-31T11:01:45;14.02;;;9.05;;
55114;SDS011;41010;53.252;5.786;2022-10-31T11:04:21;14.98;;;9.20;;
55114;SDS011;41010;53.252;5.786;2022-10-31T11:06:57;14.10;;;9.02;;
55114;SDS011;41010;53.252;5.786;2022-10-31T11:09:26;17.52;;;9.40;;
55114;SDS011;41010;53.252;5.786;2022-10-31T11:11:53;14.73;;;8.60;;
55114;SDS011;41010;53.252;5.786;2022-10-31T11:14:21;15.52;;;9.85;;
55114;SDS011;41010;53.252;5.786;2022-10-31T11:16:50;16.27;;;9.52;;
55114;SDS011;41010;53.252;5.786;2022-10-31T11:19:19;14.57;;;9.90;;
55114;SDS011;41010;53.252;5.786;2022-10-31T11:21:46;15.55;;;8.30;;
55114;SDS011;41010;53.252;5.786;2022-10-31T11:24:15;12.43;;;7.15;;
55114;SDS011;41010;53.252;5.786;2022-10-31T11:26:45;13.90;;;8.00;;
55114;SDS011;41010;53.252;5.786;2022-10-31T11:29:14;14.40;;;7.57;;
55114;SDS011;41010;53.252;5.786;2022-10-31T11:31:41;11.60;;;6.75;;
55114;SDS011;41010;53.252;5.786;2022-10-31T11:34:14;14.05;;;7.65;;
55114;SDS011;41010;53.252;5.786;2022-10-31T11:36:42;11.83;;;6.43;;
55114;SDS011;41010;53.252;5.786;2022-10-31T11:39:14;9.57;;;6.55;;
55114;SDS011;41010;53.252;5.786;2022-10-31T11:41:42;11.13;;;6.55;;
55114;SDS011;41010;53.252;5.786;2022-10-31T11:44:12;10.52;;;6.47;;
55114;SDS011;41010;53.252;5.786;2022-10-31T11:46:41;11.93;;;6.15;;
55114;SDS011;41010;53.252;5.786;2022-10-31T11:49:12;8.50;;;5.50;;
55114;SDS011;41010;53.252;5.786;2022-10-31T11:51:41;10.73;;;5.68;;
55114;SDS011;41010;53.252;5.786;2022-10-31T11:54:15;9.77;;;5.72;;
55114;SDS011;41010;53.252;5.786;2022-10-31T11:56:45;6.75;;;5.18;;
55114;SDS011;41010;53.252;5.786;2022-10-31T11:59:17;10.38;;;5.70;;
55114;SDS011;41010;53.252;5.786;2022-10-31T12:01:48;16.23;;;6.68;;
55114;SDS011;41010;53.252;5.786;2022-10-31T12:04:15;11.15;;;6.07;;
55114;SDS011;41010;53.252;5.786;2022-10-31T12:06:43;12.07;;;6.00;;
55114;SDS011;41010;53.252;5.786;2022-10-31T12:09:19;10.18;;;5.10;;
55114;SDS011;41010;53.252;5.786;2022-10-31T12:11:51;12.68;;;5.30;;
55114;SDS011;41010;53.252;5.786;2022-10-31T12:14:26;11.50;;;6.07;;
55114;SDS011;41010;53.252;5.786;2022-10-31T12:16:55;10.95;;;5.82;;
55114;SDS011;41010;53.252;5.786;2022-10-31T12:19:27;10.50;;;5.57;;
55114;SDS011;41010;53.252;5.786;2022-10-31T12:24:28;14.70;;;6.50;;
55114;SDS011;41010;53.252;5.786;2022-10-31T12:27:01;14.13;;;6.45;;
55114;SDS011;41010;53.252;5.786;2022-10-31T12:29:36;12.68;;;6.70;;
55114;SDS011;41010;53.252;5.786;2022-10-31T12:32:15;13.95;;;7.68;;
55114;SDS011;41010;53.252;5.786;2022-10-31T12:34:53;17.58;;;7.97;;
55114;SDS011;41010;53.252;5.786;2022-10-31T12:37:28;14.77;;;8.00;;
55114;SDS011;41010;53.252;5.786;2022-10-31T12:40:01;17.45;;;8.85;;
55114;SDS011;41010;53.252;5.786;2022-10-31T12:42:36;14.35;;;9.15;;
55114;SDS011;41010;53.252;5.786;2022-10-31T12:45:17;15.98;;;9.43;;
55114;SDS011;41010;53.252;5.786;2022-10-31T12:48:03;18.42;;;9.63;;
55114;SDS011;41010;53.252;5.786;2022-10-31T12:50:35;17.65;;;9.25;;
55114;SDS011;41010;53.252;5.786;2022-10-31T12:53:09;17.30;;;9.27;;
55114;SDS011;41010;53.252;5.786;2022-10-31T12:55:45;15.07;;;8.57;;
55114;SDS011;41010;53.252;5.786;2022-10-31T12:58:17;18.38;;;9.77;;
55114;SDS011;41010;53.252;5.786;2022-10-31T13:00:48;18.60;;;9.70;;
55114;SDS011;41010;53.252;5.786;2022-10-31T13:03:22;14.77;;;8.23;;
55114;SDS011;41010;53.252;5.786;2022-10-31T13:05:51;16.02;;;8.50;;
55114;SDS011;41010;53.252;5.786;2022-10-31T13:08:22;17.35;;;8.00;;
55114;SDS011;41010;53.252;5.786;2022-10-31T13:10:52;17.40;;;8.63;;
55114;SDS011;41010;53.252;5.786;2022-10-31T13:13:25;13.23;;;8.52;;
55114;SDS011;41010;53.252;5.786;2022-10-31T13:15:55;14.32;;;7.50;;
55114;SDS011;41010;53.252;5.786;2022-10-31T13:18:25;13.48;;;7.45;;
55114;SDS011;41010;53.252;5.786;2022-10-31T13:20:53;16.05;;;7.78;;
55114;SDS011;41010;53.252;5.786;2022-10-31T13:23:24;13.13;;;7.32;;
55114;SDS011;41010;53.252;5.786;2022-10-31T13:25:55;13.88;;;6.32;;
55114;SDS011;41010;53.252;5.786;2022-10-31T13:28:24;13.70;;;6.57;;
55114;SDS011;41010;53.252;5.786;2022-10-31T13:30:56;15.65;;;6.28;;
55114;SDS011;41010;53.252;5.786;2022-10-31T13:33:24;13.88;;;5.80;;
55114;SDS011;41010;53.252;5.786;2022-10-31T13:35:54;13.05;;;4.80;;
55114;SDS011;41010;53.252;5.786;2022-10-31T13:38:25;9.15;;;3.85;;
55114;SDS011;41010;53.252;5.786;2022-10-31T13:40:56;13.13;;;3.72;;
55114;SDS011;41010;53.252;5.786;2022-10-31T13:43:28;9.98;;;3.58;;
55114;SDS011;41010;53.252;5.786;2022-10-31T13:45:59;13.82;;;3.10;;
55114;SDS011;41010;53.252;5.786;2022-10-31T13:48:33;9.63;;;3.20;;
55114;SDS011;41010;53.252;5.786;2022-10-31T13:51:02;11.18;;;3.42;;
55114;SDS011;41010;53.252;5.786;2022-10-31T13:53:36;11.90;;;3.47;;
55114;SDS011;41010;53.252;5.786;2022-10-31T13:56:09;9.40;;;3.38;;
55114;SDS011;41010;53.252;5.786;2022-10-31T13:58:40;10.18;;;3.30;;
55114;SDS011;41010;53.252;5.786;2022-10-31T14:01:14;8.32;;;3.63;;
55114;SDS011;41010;53.252;5.786;2022-10-31T14:03:42;12.25;;;3.83;;
55114;SDS011;41010;53.252;5.786;2022-10-31T14:06:10;9.32;;;2.78;;
55114;SDS011;41010;53.252;5.786;2022-10-31T14:08:39;10.98;;;3.20;;
55114;SDS011;41010;53.252;5.786;2022-10-31T14:11:07;13.15;;;3.20;;
55114;SDS011;41010;53.252;5.786;2022-10-31T14:13:36;10.90;;;3.53;;
55114;SDS011;41010;53.252;5.786;2022-10-31T14:16:06;10.80;;;3.30;;
55114;SDS011;41010;53.252;5.786;2022-10-31T14:18:46;11.45;;;3.55;;
55114;SDS011;41010;53.252;5.786;2022-10-31T14:21:15;11.40;;;3.67;;
55114;SDS011;41010;53.252;5.786;2022-10-31T14:23:43;11.50;;;3.88;;
55114;SDS011;41010;53.252;5.786;2022-10-31T14:29:03;12.40;;;3.65;;
55114;SDS011;41010;53.252;5.786;2022-10-31T14:31:51;9.77;;;3.50;;
55114;SDS011;41010;53.252;5.786;2022-10-31T14:34:22;10.63;;;4.45;;
55114;SDS011;41010;53.252;5.786;2022-10-31T14:39:32;16.05;;;4.45;;
55114;SDS011;41010;53.252;5.786;2022-10-31T14:42:09;11.32;;;4.22;;
55114;SDS011;41010;53.252;5.786;2022-10-31T14:47:27;10.35;;;3.90;;
55114;SDS011;41010;53.252;5.786;2022-10-31T14:50:12;10.45;;;4.07;;
55114;SDS011;41010;53.252;5.786;2022-10-31T14:52:44;10.65;;;4.60;;
55114;SDS011;41010;53.252;5.786;2022-10-31T14:55:14;14.55;;;5.88;;
55114;SDS011;41010;53.252;5.786;2022-10-31T14:57:43;17.35;;;5.55;;